createdAt,value
2023-05-15T00:01:46.373Z,12.18
2023-05-15T00:04:47.967Z,12.16
2023-05-15T00:07:50.028Z,12.12
2023-05-15T00:11:00.976Z,12.13
2023-05-15T00:14:03.323Z,12.20
2023-05-15T00:17:05.442Z,12.12
2023-05-15T00:20:09.371Z,12.07
2023-05-15T00:23:11.382Z,12.03
2023-05-15T00:26:15.072Z,12.06
2023-05-15T00:29:16.540Z,12.16
2023-05-15T00:32:17.833Z,12.21
2023-05-15T00:35:20.424Z,12.20
2023-05-15T00:38:22.365Z,12.09
2023-05-15T00:41:27.965Z,12.01
2023-05-15T00:44:31.054Z,11.84
2023-05-15T00:47:33.091Z,11.84
2023-05-15T00:50:35.445Z,11.76
2023-05-15T00:53:38.077Z,11.74
2023-05-15T00:56:41.642Z,11.59
2023-05-15T00:59:45.186Z,11.57
2023-05-15T01:02:46.601Z,11.58
2023-05-15T01:05:48.081Z,11.63
2023-05-15T01:08:51.396Z,11.64
2023-05-15T01:11:54.786Z,11.63
2023-05-15T01:14:56.480Z,11.63
2023-05-15T01:17:57.941Z,11.69
2023-05-15T01:21:20.954Z,11.63
2023-05-15T01:24:42.543Z,11.50
2023-05-15T01:27:47.853Z,11.44
2023-05-15T01:30:52.286Z,11.35
2023-05-15T01:33:58.840Z,11.31
2023-05-15T01:37:03.154Z,11.25
2023-05-15T01:40:08.632Z,11.21
2023-05-15T01:43:15.970Z,11.10
2023-05-15T01:46:21.698Z,11.10
2023-05-15T01:49:27.182Z,11.06
2023-05-15T01:52:30.658Z,11.04
2023-05-15T01:55:33.260Z,11.03
2023-05-15T01:58:37.461Z,11.06
2023-05-15T02:01:40.069Z,10.95
2023-05-15T02:04:42.861Z,11.01
2023-05-15T02:07:45.662Z,10.99
2023-05-15T02:10:47.939Z,10.84
2023-05-15T02:13:51.494Z,10.89
2023-05-15T02:16:53.000Z,10.79
2023-05-15T02:19:54.364Z,10.67
2023-05-15T02:22:55.760Z,10.57
2023-05-15T02:26:11.028Z,10.60
2023-05-15T02:29:19.382Z,10.69
2023-05-15T02:32:31.327Z,10.73
2023-05-15T02:35:37.677Z,10.69
2023-05-15T02:38:44.448Z,10.62
2023-05-15T02:41:47.051Z,10.54
2023-05-15T02:44:50.767Z,10.54
2023-05-15T02:47:53.009Z,10.62
2023-05-15T02:50:55.229Z,10.67
2023-05-15T02:53:59.500Z,10.69
2023-05-15T02:57:00.885Z,10.62
2023-05-15T03:00:04.693Z,10.66
2023-05-15T03:03:06.146Z,10.54
2023-05-15T03:06:07.614Z,10.54
2023-05-15T03:09:08.915Z,10.63
2023-05-15T03:12:10.683Z,10.65
2023-05-15T03:15:12.868Z,10.61
2023-05-15T03:18:15.745Z,10.68
2023-05-15T03:21:18.748Z,10.51
2023-05-15T03:24:20.607Z,10.53
2023-05-15T03:27:22.016Z,10.57
2023-05-15T03:30:24.043Z,10.60
2023-05-15T03:33:25.454Z,10.68
2023-05-15T03:36:26.907Z,10.75
2023-05-15T03:39:28.187Z,10.78
2023-05-15T03:42:29.710Z,10.83
2023-05-15T03:45:33.223Z,10.91
2023-05-15T03:48:34.535Z,11.02
2023-05-15T03:51:36.250Z,11.07
2023-05-15T03:54:37.682Z,11.00
2023-05-15T03:57:40.914Z,10.93
2023-05-15T04:00:43.459Z,11.03
2023-05-15T04:03:44.789Z,11.13
2023-05-15T04:06:46.262Z,11.15
2023-05-15T04:09:47.570Z,11.21
2023-05-15T04:12:48.906Z,11.27
2023-05-15T04:15:51.121Z,11.32
2023-05-15T04:18:52.643Z,11.50
2023-05-15T04:21:54.476Z,11.64
2023-05-15T04:24:55.787Z,11.78
2023-05-15T04:27:57.206Z,12.03
2023-05-15T04:30:59.297Z,12.32
2023-05-15T04:34:00.781Z,12.55
2023-05-15T04:37:02.412Z,12.74
2023-05-15T04:40:05.823Z,12.95
2023-05-15T04:43:07.685Z,13.18
2023-05-15T04:46:09.795Z,13.46
2023-05-15T04:49:11.390Z,13.72
2023-05-15T04:52:12.838Z,13.66
2023-05-15T04:55:14.142Z,13.64
2023-05-15T04:58:15.768Z,14.26
2023-05-15T05:01:18.050Z,14.87
2023-05-15T05:04:19.636Z,14.82
2023-05-15T05:07:21.078Z,15.32
2023-05-15T05:10:22.712Z,15.79
2023-05-15T05:13:24.207Z,16.39
2023-05-15T05:16:26.389Z,16.93
2023-05-15T05:19:27.916Z,17.04
2023-05-15T05:22:30.525Z,17.56
2023-05-15T05:25:31.881Z,18.01
2023-05-15T05:28:33.352Z,18.31
2023-05-15T05:31:35.353Z,18.47
2023-05-15T05:34:36.817Z,18.92
2023-05-15T05:37:40.231Z,19.36
2023-05-15T05:40:42.889Z,19.72
2023-05-15T05:43:44.209Z,20.05
2023-05-15T05:46:46.170Z,20.52
2023-05-15T05:49:47.500Z,20.66
2023-05-15T05:52:49.114Z,20.85
2023-05-15T05:55:50.589Z,20.75
2023-05-15T05:58:52.068Z,20.84
2023-05-15T06:01:54.072Z,21.27
2023-05-15T06:04:55.520Z,21.51
2023-05-15T06:07:57.143Z,21.71
2023-05-15T06:10:58.624Z,21.82
2023-05-15T06:14:00.179Z,22.21
2023-05-15T06:17:02.572Z,21.85
2023-05-15T06:20:06.253Z,21.53
2023-05-15T06:23:07.535Z,21.20
2023-05-15T06:26:09.074Z,20.92
2023-05-15T06:29:10.716Z,20.94
2023-05-15T06:32:12.705Z,21.36
2023-05-15T06:35:14.061Z,22.14
2023-05-15T06:38:15.341Z,22.48
2023-05-15T06:41:16.788Z,22.60
2023-05-15T06:44:18.216Z,23.15
2023-05-15T06:47:20.254Z,22.95
2023-05-15T06:50:21.908Z,23.85
2023-05-15T06:53:23.204Z,24.08
2023-05-15T06:56:24.955Z,24.79
2023-05-15T06:59:26.291Z,24.87
2023-05-15T07:02:28.299Z,24.67
2023-05-15T07:05:30.005Z,24.84
2023-05-15T07:08:31.318Z,23.82
2023-05-15T07:11:36.572Z,23.90
2023-05-15T07:14:37.885Z,24.51
2023-05-15T07:17:40.000Z,24.87
2023-05-15T07:20:41.491Z,24.13
2023-05-15T07:23:42.839Z,24.13
2023-05-15T07:26:57.576Z,23.67
2023-05-15T07:30:00.925Z,23.52
2023-05-15T07:33:03.030Z,23.05
2023-05-15T07:36:05.155Z,22.80
2023-05-15T07:39:06.523Z,22.98
2023-05-15T07:42:08.070Z,23.17
2023-05-15T07:45:10.198Z,23.58
2023-05-15T07:48:16.463Z,24.41
2023-05-15T07:51:18.045Z,25.03
2023-05-15T07:54:19.428Z,24.45
2023-05-15T07:57:20.892Z,24.36
2023-05-15T08:00:22.230Z,23.76
2023-05-15T08:03:24.599Z,23.47
2023-05-15T08:06:26.133Z,23.66
2023-05-15T08:09:27.674Z,23.39
2023-05-15T08:12:29.131Z,23.16
2023-05-15T08:15:30.506Z,23.11
2023-05-15T08:18:32.668Z,22.80
2023-05-15T08:21:34.166Z,22.71
2023-05-15T08:24:35.506Z,22.96
2023-05-15T08:27:36.809Z,22.77
2023-05-15T08:30:38.142Z,22.57
2023-05-15T08:33:40.297Z,22.49
2023-05-15T08:36:42.922Z,22.40
2023-05-15T08:39:44.262Z,22.21
2023-05-15T08:42:49.788Z,22.25
2023-05-15T08:45:53.608Z,22.12
2023-05-15T08:48:56.774Z,22.20
2023-05-15T08:51:58.617Z,22.02
2023-05-15T08:55:00.617Z,22.03
2023-05-15T08:58:02.462Z,22.01
2023-05-15T09:01:04.041Z,21.93
2023-05-15T09:04:06.103Z,22.09
2023-05-15T09:07:09.414Z,21.82
2023-05-15T09:10:12.725Z,21.78
2023-05-15T09:13:14.843Z,22.04
2023-05-15T09:16:16.311Z,21.94
2023-05-15T09:19:20.043Z,22.08
2023-05-15T09:22:23.578Z,22.07
2023-05-15T09:25:37.411Z,22.25
2023-05-15T09:28:39.315Z,22.33
2023-05-15T09:31:41.015Z,22.34
2023-05-15T09:34:45.173Z,22.47
2023-05-15T09:37:46.506Z,22.63
2023-05-15T09:40:47.850Z,22.70
2023-05-15T09:43:49.171Z,22.90
2023-05-15T09:46:50.888Z,22.91
2023-05-15T09:49:53.142Z,22.84
2023-05-15T09:52:58.260Z,22.84
2023-05-15T09:55:59.773Z,22.94
2023-05-15T09:59:01.426Z,22.81
2023-05-15T10:02:02.921Z,22.95
2023-05-15T10:05:05.504Z,22.70
2023-05-15T10:08:06.869Z,22.71
2023-05-15T10:11:08.762Z,22.83
2023-05-15T10:14:12.535Z,22.70
2023-05-15T10:17:14.224Z,22.95
2023-05-15T10:20:17.696Z,23.02
2023-05-15T10:23:21.877Z,22.84
2023-05-15T10:26:29.254Z,22.87
2023-05-15T10:29:33.919Z,22.90
2023-05-15T10:32:36.225Z,22.81
2023-05-15T10:35:39.790Z,22.36
2023-05-15T10:38:42.823Z,22.04
2023-05-15T10:41:45.664Z,21.76
2023-05-15T10:44:48.636Z,21.67
2023-05-15T10:47:51.533Z,21.53
2023-05-15T10:50:53.658Z,21.64
2023-05-15T10:53:56.071Z,21.54
2023-05-15T10:56:57.511Z,21.68
2023-05-15T10:59:58.866Z,21.81
2023-05-15T11:03:00.376Z,21.91
2023-05-15T11:06:09.557Z,22.07
2023-05-15T11:09:33.347Z,22.11
2023-05-15T11:12:56.318Z,22.15
2023-05-15T11:15:57.624Z,21.96
2023-05-15T11:18:59.159Z,22.19
2023-05-15T11:22:02.518Z,22.02
2023-05-15T11:25:08.121Z,22.20
2023-05-15T11:28:21.646Z,22.41
2023-05-15T11:31:29.905Z,22.53
2023-05-15T11:34:32.708Z,22.53
2023-05-15T11:37:38.030Z,22.53
2023-05-15T11:40:47.969Z,22.77
2023-05-15T11:43:50.245Z,22.90
2023-05-15T11:46:52.934Z,23.01
2023-05-15T11:49:54.518Z,23.27
2023-05-15T11:52:57.349Z,23.44
2023-05-15T11:55:59.199Z,23.50
2023-05-15T11:59:01.665Z,23.95
2023-05-15T12:02:05.851Z,24.94
2023-05-15T12:05:08.266Z,25.74
2023-05-15T12:08:11.050Z,26.31
2023-05-15T12:11:12.903Z,26.22
2023-05-15T12:14:14.566Z,26.44
2023-05-15T12:17:15.901Z,26.68
2023-05-15T12:20:18.480Z,26.81
2023-05-15T12:23:22.470Z,26.41
2023-05-15T12:26:25.585Z,25.93
2023-05-15T12:29:28.414Z,25.25
2023-05-15T12:32:31.806Z,25.58
2023-05-15T12:35:34.274Z,25.65
2023-05-15T12:38:36.747Z,25.49
2023-05-15T12:41:38.606Z,25.19
2023-05-15T12:44:39.971Z,25.01
2023-05-15T12:47:42.647Z,24.86
2023-05-15T12:50:45.087Z,24.81
2023-05-15T12:53:47.155Z,25.10
2023-05-15T12:56:49.158Z,25.13
2023-05-15T12:59:50.819Z,25.67
2023-05-15T13:02:54.377Z,25.83
2023-05-15T13:05:56.098Z,26.04
2023-05-15T13:08:58.523Z,26.37
2023-05-15T13:12:03.406Z,26.01
2023-05-15T13:15:06.488Z,25.70
2023-05-15T13:18:10.020Z,25.84
2023-05-15T13:21:11.470Z,25.88
2023-05-15T13:24:13.654Z,25.90
2023-05-15T13:27:15.383Z,25.71
2023-05-15T13:30:17.468Z,25.76
2023-05-15T13:33:19.165Z,25.85
2023-05-15T13:36:20.667Z,25.57
2023-05-15T13:39:22.651Z,25.24
2023-05-15T13:42:24.073Z,25.04
2023-05-15T13:45:25.483Z,24.83
2023-05-15T13:48:27.076Z,23.03
2023-05-15T13:51:28.582Z,21.92
2023-05-15T13:54:31.179Z,21.38
2023-05-15T13:57:32.659Z,21.31
2023-05-15T14:00:34.117Z,21.53
2023-05-15T14:03:35.693Z,21.01
2023-05-15T14:06:37.179Z,21.48
2023-05-15T14:09:39.536Z,21.53
2023-05-15T14:12:42.652Z,20.97
2023-05-15T14:15:43.980Z,21.08
2023-05-15T14:18:45.514Z,21.00
2023-05-15T14:21:46.961Z,20.51
2023-05-15T14:24:48.972Z,20.44
2023-05-15T14:27:50.640Z,20.51
2023-05-15T14:30:51.915Z,20.66
2023-05-15T14:33:53.528Z,21.07
2023-05-15T14:36:54.887Z,20.84
2023-05-15T14:39:57.009Z,21.03
2023-05-15T14:42:58.340Z,20.97
2023-05-15T14:45:59.854Z,21.24
2023-05-15T14:49:01.308Z,20.62
2023-05-15T14:52:02.752Z,20.72
2023-05-15T14:55:09.726Z,20.45
2023-05-15T14:58:11.357Z,20.43
2023-05-15T15:01:12.832Z,20.41
2023-05-15T15:04:14.308Z,20.16
2023-05-15T15:07:15.816Z,19.91
2023-05-15T15:10:18.218Z,19.70
2023-05-15T15:13:19.808Z,19.92
2023-05-15T15:16:21.328Z,19.88
2023-05-15T15:19:22.984Z,20.17
2023-05-15T15:22:24.284Z,20.22
2023-05-15T15:25:26.451Z,20.29
2023-05-15T15:28:28.502Z,20.51
2023-05-15T15:31:30.549Z,20.84
2023-05-15T15:34:31.874Z,20.90
2023-05-15T15:37:34.725Z,21.02
2023-05-15T15:40:36.674Z,21.09
2023-05-15T15:43:38.319Z,21.00
2023-05-15T15:46:39.674Z,20.89
2023-05-15T15:49:42.594Z,20.90
2023-05-15T15:52:44.176Z,20.95
2023-05-15T15:55:47.222Z,20.88
2023-05-15T15:58:48.742Z,20.69
2023-05-15T16:01:50.619Z,20.76
2023-05-15T16:04:53.925Z,20.51
2023-05-15T16:07:55.259Z,20.43
2023-05-15T16:10:57.404Z,20.28
2023-05-15T16:13:58.703Z,20.19
2023-05-15T16:17:00.716Z,19.87
2023-05-15T16:20:02.624Z,19.68
2023-05-15T16:23:03.977Z,19.68
2023-05-15T16:26:06.097Z,19.69
2023-05-15T16:29:07.447Z,19.71
2023-05-15T16:32:08.884Z,19.78
2023-05-15T16:35:10.426Z,19.68
2023-05-15T16:38:12.617Z,19.56
2023-05-15T16:41:14.621Z,19.72
2023-05-15T16:44:15.896Z,19.70
2023-05-15T16:47:17.332Z,19.62
2023-05-15T16:50:18.866Z,19.65
2023-05-15T16:53:20.341Z,19.64
2023-05-15T16:56:22.262Z,19.37
2023-05-15T16:59:23.580Z,19.23
2023-05-15T17:02:25.696Z,19.14
2023-05-15T17:05:27.380Z,18.96
2023-05-15T17:08:28.731Z,19.14
2023-05-15T17:11:30.811Z,18.67
2023-05-15T17:14:32.080Z,18.69
2023-05-15T17:17:33.882Z,18.76
2023-05-15T17:20:35.226Z,18.75
2023-05-15T17:23:36.563Z,18.73
2023-05-15T17:26:38.540Z,18.64
2023-05-15T17:29:40.125Z,18.62
2023-05-15T17:32:41.637Z,18.66
2023-05-15T17:35:43.069Z,18.63
2023-05-15T17:38:44.343Z,18.66
2023-05-15T17:41:46.352Z,18.52
2023-05-15T17:44:47.671Z,18.40
2023-05-15T17:47:49.194Z,18.45
2023-05-15T17:50:50.948Z,18.43
2023-05-15T17:53:52.425Z,18.42
2023-05-15T17:56:54.497Z,18.40
2023-05-15T17:59:55.828Z,18.23
2023-05-15T18:02:57.383Z,18.26
2023-05-15T18:05:58.854Z,18.10
2023-05-15T18:09:00.280Z,18.10
2023-05-15T18:12:02.702Z,18.08
2023-05-15T18:15:04.778Z,18.09
2023-05-15T18:18:06.309Z,18.02
2023-05-15T18:21:07.672Z,17.94
2023-05-15T18:24:09.179Z,17.91
2023-05-15T18:27:11.135Z,17.90
2023-05-15T18:30:13.762Z,17.89
2023-05-15T18:33:15.197Z,17.90
2023-05-15T18:36:16.503Z,17.91
2023-05-15T18:39:17.966Z,17.80
2023-05-15T18:42:19.875Z,17.91
2023-05-15T18:45:22.441Z,17.77
2023-05-15T18:48:23.814Z,17.56
2023-05-15T18:51:25.360Z,17.62
2023-05-15T18:54:26.842Z,17.44
2023-05-15T18:57:28.967Z,17.49
2023-05-15T19:03:36.670Z,17.36
2023-05-15T19:06:38.660Z,17.35
2023-05-15T19:09:40.132Z,17.12
2023-05-15T19:12:44.159Z,17.09
2023-05-15T19:15:50.328Z,17.02
2023-05-15T19:18:51.823Z,16.90
2023-05-15T19:21:53.438Z,16.94
2023-05-15T19:24:55.125Z,16.92
2023-05-15T19:27:57.225Z,16.84
2023-05-15T19:30:58.514Z,16.82
2023-05-15T19:34:00.349Z,16.77
2023-05-15T19:37:01.844Z,16.71
2023-05-15T19:40:05.230Z,16.78
2023-05-15T19:43:07.353Z,16.60
2023-05-15T19:46:08.679Z,16.56
2023-05-15T19:49:10.676Z,16.49
2023-05-15T19:52:11.945Z,16.44
2023-05-15T19:55:13.502Z,16.37
2023-05-15T19:58:15.481Z,16.26
2023-05-15T20:01:17.021Z,16.26
2023-05-15T20:04:20.149Z,16.24
2023-05-15T20:07:21.560Z,16.13
2023-05-15T20:10:23.224Z,16.11
2023-05-15T20:13:25.193Z,16.07
2023-05-15T20:16:26.784Z,16.07
2023-05-15T20:19:30.728Z,16.02
2023-05-15T20:22:32.158Z,16.01
2023-05-15T20:25:33.452Z,15.84
2023-05-15T20:28:35.512Z,15.91
2023-05-15T20:31:37.472Z,15.94
2023-05-15T20:34:40.657Z,15.81
2023-05-15T20:37:43.691Z,15.87
2023-05-15T20:40:45.048Z,15.94
2023-05-15T20:43:47.121Z,15.90
2023-05-15T20:46:48.394Z,15.86
2023-05-15T20:49:49.784Z,15.83
2023-05-15T20:52:51.058Z,15.95
2023-05-15T20:55:52.636Z,15.98
2023-05-15T20:58:54.571Z,15.96
2023-05-15T21:01:56.163Z,15.90
2023-05-15T21:04:57.740Z,15.92
2023-05-15T21:07:59.042Z,15.95
2023-05-15T21:11:00.649Z,15.90
2023-05-15T21:14:02.801Z,15.84
2023-05-15T21:17:04.571Z,15.86
2023-05-15T21:20:07.366Z,15.73
2023-05-15T21:23:08.687Z,15.74
2023-05-15T21:26:10.714Z,15.68
2023-05-15T21:29:12.906Z,15.74
2023-05-15T21:32:14.339Z,15.82
2023-05-15T21:35:16.214Z,15.71
2023-05-15T21:38:17.683Z,15.60
2023-05-15T21:41:19.122Z,15.69
2023-05-15T21:44:21.355Z,15.61
2023-05-15T21:47:22.868Z,15.49
2023-05-15T21:50:25.227Z,15.60
2023-05-15T21:53:26.995Z,15.76
2023-05-15T21:56:28.300Z,15.72
2023-05-15T21:59:30.408Z,15.79
2023-05-15T22:02:31.698Z,15.73
2023-05-15T22:05:33.567Z,15.71
2023-05-15T22:08:34.889Z,15.74
2023-05-15T22:11:36.325Z,15.61
2023-05-15T22:14:46.984Z,15.45
2023-05-15T22:17:59.699Z,15.41
2023-05-15T22:21:02.134Z,15.44
2023-05-15T22:24:03.843Z,15.41
2023-05-15T22:27:05.436Z,15.35
2023-05-15T22:30:08.668Z,15.26
2023-05-15T22:33:10.201Z,15.21
2023-05-15T22:36:11.480Z,15.23
2023-05-15T22:39:12.904Z,15.24
2023-05-15T22:42:14.201Z,15.26
2023-05-15T22:45:17.309Z,15.33
2023-05-15T22:48:20.249Z,15.22
2023-05-15T22:51:21.816Z,15.20
2023-05-15T22:54:23.648Z,15.18
2023-05-15T22:57:26.033Z,15.15
2023-05-15T23:00:28.332Z,15.15
2023-05-15T23:03:30.077Z,15.11
2023-05-15T23:06:31.585Z,15.18
2023-05-15T23:09:33.061Z,15.08
2023-05-15T23:12:34.324Z,14.98
2023-05-15T23:15:36.472Z,15.02
2023-05-15T23:18:37.986Z,14.93
2023-05-15T23:21:39.302Z,14.81
2023-05-15T23:24:40.707Z,14.82
2023-05-15T23:27:42.009Z,14.83
2023-05-15T23:30:44.148Z,14.83
2023-05-15T23:33:45.552Z,14.80
2023-05-15T23:36:46.994Z,14.81
2023-05-15T23:39:48.426Z,14.81
2023-05-15T23:42:49.787Z,14.90
2023-05-15T23:45:51.936Z,14.93
2023-05-15T23:48:53.233Z,14.82
2023-05-15T23:51:54.670Z,14.73
2023-05-15T23:54:55.945Z,14.75
2023-05-15T23:57:57.241Z,14.75
